Time;durP1;ratioP1;P1;durP2;ratioP2;P2;SDS_P1;SDS_P2;PMS_P1;PMS_P2;Temp;Humidity;BMP_temperature;BMP_pressure;BME280_temperature;BME280_humidity;BME280_pressure;Samples;Min_cycle;Max_cycle;Signal;HPM_P1;HPM_P2
2021/12/13 07:00:15;;;;;;;4.35;1.20;;;11.10;99.90;;;;;;6085838;23;20183;-91
2021/12/13 07:02:46;;;;;;;3.47;1.08;;;11.10;99.90;;;;;;4911367;28;1645358;-90
2021/12/13 07:05:28;;;;;;;5.43;1.20;;;11.10;99.90;;;;;;4955937;28;20070;-86
2021/12/13 07:08:05;;;;;;;5.47;1.65;;;11.00;99.90;;;;;;4975625;28;20059;-89
2021/12/13 07:10:56;;;;;;;9.25;2.90;;;11.10;99.90;;;;;;4968639;28;20042;-87
2021/12/13 07:13:50;;;;;;;4.57;1.90;;;11.10;99.90;;;;;;4968194;28;20051;-89
2021/12/13 07:16:25;;;;;;;8.27;1.65;;;11.10;99.90;;;;;;4961904;28;20050;-90
2021/12/13 07:19:18;;;;;;;7.35;2.00;;;11.10;99.90;;;;;;4972686;28;20499;-92
2021/12/13 07:21:59;;;;;;;9.32;1.90;;;11.10;99.90;;;;;;4961192;28;20486;-88
2021/12/13 07:24:42;;;;;;;14.32;2.55;;;11.10;99.90;;;;;;4960684;28;20047;-93
2021/12/13 07:27:14;;;;;;;12.27;2.17;;;11.10;99.90;;;;;;4969668;28;20075;-86
2021/12/13 07:29:51;;;;;;;8.13;2.35;;;11.20;99.90;;;;;;4968798;28;20788;-92
2021/12/13 07:32:32;;;;;;;11.48;3.33;;;11.20;99.90;;;;;;4969343;28;20121;-91
2021/12/13 07:35:08;;;;;;;16.58;2.92;;;11.20;99.90;;;;;;4971990;28;20046;-89
2021/12/13 07:38:04;;;;;;;14.15;3.00;;;11.20;99.90;;;;;;4970000;28;20042;-93
2021/12/13 07:40:36;;;;;;;12.07;2.45;;;11.20;99.90;;;;;;4873195;29;20127;-89
2021/12/13 07:43:09;;;;;;;10.43;3.03;;;11.20;99.90;;;;;;4874284;29;20088;-91
2021/12/13 07:45:48;;;;;;;11.52;2.60;;;11.20;99.90;;;;;;4870790;29;20045;-90
2021/12/13 07:48:19;;;;;;;12.85;3.00;;;11.20;99.90;;;;;;4873741;29;20049;-89
2021/12/13 07:51:00;;;;;;;13.00;3.15;;;11.20;99.90;;;;;;4872411;29;20053;-89
2021/12/13 07:53:28;;;;;;;10.80;3.10;;;11.20;99.90;;;;;;4871561;29;20117;-92
2021/12/13 07:55:55;;;;;;;11.48;2.97;;;11.20;99.90;;;;;;4875053;29;20053;-88
2021/12/13 07:58:44;;;;;;;11.93;3.08;;;11.20;99.90;;;;;;4858148;29;20053;-90
2021/12/13 08:01:20;;;;;;;13.60;3.60;;;11.20;99.90;;;;;;4872260;29;20064;-90
2021/12/13 08:03:54;;;;;;;15.65;3.75;;;11.20;99.90;;;;;;4874158;29;20104;-91
2021/12/13 08:06:27;;;;;;;10.65;3.22;;;11.20;99.90;;;;;;4873466;29;20081;-92
2021/12/13 08:08:59;;;;;;;10.45;3.17;;;11.20;99.90;;;;;;4872945;29;20049;-89
2021/12/13 08:11:53;;;;;;;13.95;3.95;;;11.20;99.90;;;;;;4873674;29;20048;-89
2021/12/13 08:14:42;;;;;;;13.20;3.72;;;11.20;99.90;;;;;;4872370;29;20045;-90
2021/12/13 08:17:26;;;;;;;13.05;3.92;;;11.20;99.90;;;;;;4901932;28;20051;-93
2021/12/13 08:20:00;;;;;;;13.85;3.97;;;11.20;99.90;;;;;;4970576;28;20055;-91
2021/12/13 08:22:29;;;;;;;16.48;4.95;;;11.20;99.90;;;;;;4967236;28;20046;-93
2021/12/13 08:25:07;;;;;;;12.75;3.90;;;11.20;99.90;;;;;;4967890;28;20051;-92
2021/12/13 08:28:02;;;;;;;13.32;4.20;;;11.20;99.90;;;;;;4968882;28;20038;-92
2021/12/13 08:30:44;;;;;;;12.93;4.43;;;11.30;99.90;;;;;;4969192;28;20121;-94
2021/12/13 08:33:13;;;;;;;15.25;4.80;;;11.30;99.90;;;;;;4968748;28;20050;-91
2021/12/13 08:35:47;;;;;;;11.60;3.90;;;11.30;99.90;;;;;;4968018;28;20137;-88
2021/12/13 08:38:45;;;;;;;11.75;4.18;;;11.30;99.90;;;;;;4968126;28;20097;-86
2021/12/13 08:41:15;;;;;;;10.40;3.85;;;11.30;99.90;;;;;;4966380;28;20054;-87
2021/12/13 08:44:11;;;;;;;17.83;5.13;;;11.30;99.90;;;;;;4969264;28;20054;-88
2021/12/13 08:46:55;;;;;;;13.40;4.13;;;11.30;99.90;;;;;;4956988;28;20043;-89
2021/12/13 08:49:57;;;;;;;12.90;3.90;;;11.40;99.90;;;;;;4965916;28;20585;-89
2021/12/13 08:52:32;;;;;;;12.15;4.03;;;11.40;99.90;;;;;;4936748;28;20060;-91
2021/12/13 08:55:12;;;;;;;9.10;3.55;;;11.40;99.90;;;;;;4962959;28;20134;-87
2021/12/13 08:57:42;;;;;;;10.43;3.85;;;11.40;99.90;;;;;;4954201;28;20039;-87
2021/12/13 09:00:20;;;;;;;18.38;3.92;;;11.40;99.90;;;;;;4964146;28;20051;-88
2021/12/13 09:03:10;;;;;;;16.63;3.30;;;11.40;99.90;;;;;;4940390;28;20058;-88
2021/12/13 09:06:02;;;;;;;10.80;2.83;;;11.40;99.90;;;;;;4963480;28;20483;-86
2021/12/13 09:08:35;;;;;;;8.63;2.75;;;11.50;99.90;;;;;;4956074;28;20880;-88
2021/12/13 09:11:25;;;;;;;16.63;3.28;;;11.50;99.90;;;;;;4965915;28;20082;-87
2021/12/13 09:13:56;;;;;;;18.17;3.22;;;11.50;99.90;;;;;;4966086;28;20097;-90
2021/12/13 09:16:47;;;;;;;14.15;2.53;;;11.50;99.90;;;;;;4963628;28;20148;-87
2021/12/13 09:19:25;;;;;;;12.02;2.22;;;11.50;99.90;;;;;;4957544;28;20074;-89
2021/12/13 09:21:59;;;;;;;11.18;2.30;;;11.50;99.90;;;;;;4980589;28;20114;-86
2021/12/13 09:24:35;;;;;;;12.63;2.40;;;11.50;99.90;;;;;;4964694;28;20050;-91
2021/12/13 09:27:10;;;;;;;9.50;1.80;;;11.60;99.90;;;;;;4960473;28;20051;-90
2021/12/13 09:29:57;;;;;;;7.85;1.48;;;11.60;99.90;;;;;;4954702;28;20597;-88
2021/12/13 09:32:40;;;;;;;8.05;1.55;;;11.60;99.90;;;;;;4954404;28;20467;-89
2021/12/13 09:35:31;;;;;;;6.53;1.58;;;11.60;99.90;;;;;;4965214;28;20152;-89
2021/12/13 09:38:15;;;;;;;6.68;1.98;;;11.60;99.90;;;;;;4966192;28;20054;-90
2021/12/13 09:40:44;;;;;;;7.10;1.70;;;11.60;99.90;;;;;;4981326;28;20046;-91
2021/12/13 09:43:14;;;;;;;4.47;1.55;;;11.60;99.90;;;;;;4966767;28;20069;-88
2021/12/13 09:45:48;;;;;;;8.25;1.48;;;11.60;99.90;;;;;;4966721;28;20046;-88
2021/12/13 09:48:32;;;;;;;6.63;1.70;;;11.60;99.90;;;;;;4964662;28;20059;-89
2021/12/13 09:51:10;;;;;;;8.68;1.55;;;11.70;99.90;;;;;;4965140;28;20106;-90
2021/12/13 09:53:38;;;;;;;5.10;1.63;;;11.70;99.90;;;;;;4980874;28;21922;-90
2021/12/13 09:56:11;;;;;;;9.95;2.13;;;11.70;99.90;;;;;;4952879;28;20455;-90
2021/12/13 09:58:38;;;;;;;8.00;2.40;;;11.70;99.90;;;;;;4970333;28;20487;-90
2021/12/13 10:01:12;;;;;;;6.30;1.77;;;11.70;99.90;;;;;;4965963;28;20063;-89
2021/12/13 10:04:22;;;;;;;7.13;1.30;;;11.70;99.90;;;;;;4968676;28;20050;-88
2021/12/13 10:06:53;;;;;;;7.00;1.88;;;11.70;99.90;;;;;;4954275;28;20051;-87
2021/12/13 10:09:36;;;;;;;6.85;1.92;;;11.70;99.90;;;;;;4966173;28;20043;-89
2021/12/13 10:12:16;;;;;;;7.55;1.85;;;11.70;99.90;;;;;;4970066;28;20070;-87
2021/12/13 10:14:49;;;;;;;11.82;1.80;;;11.70;99.90;;;;;;4954051;28;20106;-88
2021/12/13 10:17:20;;;;;;;8.43;1.85;;;11.70;99.90;;;;;;4969604;28;20577;-93
2021/12/13 10:19:51;;;;;;;6.35;1.48;;;11.80;99.90;;;;;;4971901;28;20109;-90
2021/12/13 10:22:23;;;;;;;7.65;1.75;;;11.80;99.90;;;;;;4958075;28;20051;-89
2021/12/13 10:24:58;;;;;;;8.18;1.83;;;11.80;99.90;;;;;;4964764;28;20047;-88
2021/12/13 10:27:26;;;;;;;8.20;2.10;;;11.90;99.90;;;;;;4972065;28;20046;-90
2021/12/13 10:29:56;;;;;;;8.95;1.70;;;11.90;99.90;;;;;;4971806;28;20047;-89
2021/12/13 10:32:28;;;;;;;8.80;1.77;;;11.90;99.90;;;;;;4971336;28;20074;-88
2021/12/13 10:34:59;;;;;;;9.98;2.45;;;11.90;99.90;;;;;;4968831;28;20470;-90
2021/12/13 10:37:34;;;;;;;14.85;2.55;;;11.90;99.90;;;;;;4971375;28;20105;-91
2021/12/13 10:40:25;;;;;;;7.38;1.80;;;11.90;99.90;;;;;;4968603;28;20047;-92
2021/12/13 10:42:59;;;;;;;12.57;2.30;;;11.90;99.90;;;;;;4967526;28;20082;-93
2021/12/13 10:45:32;;;;;;;8.55;2.42;;;11.90;99.90;;;;;;4972008;28;20058;-88
2021/12/13 10:48:03;;;;;;;6.22;2.20;;;11.90;99.90;;;;;;4971588;28;20054;-90
2021/12/13 10:50:51;;;;;;;11.90;1.95;;;11.90;99.90;;;;;;4971060;28;20114;-89
2021/12/13 10:53:22;;;;;;;8.90;2.03;;;11.90;99.90;;;;;;4968999;28;20047;-91
2021/12/13 10:55:58;;;;;;;7.57;2.30;;;11.90;99.90;;;;;;4977040;28;20118;-89
2021/12/13 10:58:30;;;;;;;14.70;1.83;;;11.90;99.90;;;;;;4968781;28;20109;-87
2021/12/13 11:01:09;;;;;;;15.45;2.13;;;11.90;99.90;;;;;;4961011;28;20102;-89
2021/12/13 11:03:38;;;;;;;7.90;1.95;;;12.00;99.90;;;;;;4946177;28;20509;-88
2021/12/13 11:06:09;;;;;;;9.40;2.08;;;12.00;99.90;;;;;;4966469;28;20047;-87
2021/12/13 11:08:41;;;;;;;9.73;2.22;;;12.00;99.90;;;;;;4980952;28;20065;-89
2021/12/13 11:11:39;;;;;;;6.45;2.20;;;12.00;99.90;;;;;;4962834;28;20055;-89
2021/12/13 11:14:10;;;;;;;9.23;1.85;;;12.10;99.90;;;;;;4966093;28;20074;-88
2021/12/13 11:16:41;;;;;;;4.13;1.58;;;12.10;99.90;;;;;;4967961;28;20070;-88
2021/12/13 11:19:12;;;;;;;9.07;2.00;;;12.10;99.90;;;;;;4960214;28;20054;-87
2021/12/13 11:21:42;;;;;;;5.13;1.98;;;12.10;99.90;;;;;;4958152;28;20050;-88
2021/12/13 11:24:22;;;;;;;12.27;2.60;;;12.10;99.90;;;;;;4967053;28;20058;-88
2021/12/13 11:26:54;;;;;;;8.82;2.13;;;12.10;99.90;;;;;;4960747;28;20062;-88
2021/12/13 11:29:21;;;;;;;10.02;2.20;;;12.10;99.90;;;;;;4967549;28;20050;-88
2021/12/13 11:31:58;;;;;;;5.82;1.77;;;12.10;99.90;;;;;;4978327;28;20437;-89
2021/12/13 11:34:49;;;;;;;8.00;1.95;;;12.10;99.90;;;;;;4966511;28;20058;-87
2021/12/13 11:37:54;;;;;;;7.57;2.00;;;12.10;99.90;;;;;;4956762;28;20078;-87
2021/12/13 11:40:55;;;;;;;11.07;2.10;;;12.10;99.90;;;;;;4966407;28;20061;-91
2021/12/13 11:43:53;;;;;;;6.72;1.55;;;12.10;99.90;;;;;;4966079;28;20078;-83
2021/12/13 11:46:27;;;;;;;7.85;2.10;;;12.10;99.90;;;;;;4966034;28;20058;-88
2021/12/13 11:49:28;;;;;;;7.90;2.30;;;12.10;99.90;;;;;;4967328;28;20530;-88
2021/12/13 11:52:26;;;;;;;12.10;6.22;;;12.10;99.90;;;;;;4965397;28;20065;-89
2021/12/13 11:55:15;;;;;;;5.47;2.20;;;12.10;99.90;;;;;;4964177;28;20055;-88
2021/12/13 11:58:01;;;;;;;7.72;2.33;;;12.10;99.90;;;;;;4966746;28;20097;-90
2021/12/13 12:00:43;;;;;;;6.38;2.03;;;12.10;99.90;;;;;;4964874;28;20058;-88
2021/12/13 12:03:48;;;;;;;7.68;2.47;;;12.10;99.90;;;;;;4963916;28;20197;-90
2021/12/13 12:07:02;;;;;;;8.73;2.55;;;12.20;99.90;;;;;;4961932;28;20058;-90
2021/12/13 12:09:52;;;;;;;6.30;2.50;;;12.20;99.90;;;;;;4956743;28;20047;-91
2021/12/13 12:12:41;;;;;;;6.25;2.20;;;12.20;99.90;;;;;;4945118;28;20497;-92
2021/12/13 12:15:09;;;;;;;7.35;2.30;;;12.20;99.90;;;;;;4954423;28;20049;-92
2021/12/13 12:17:37;;;;;;;6.55;2.33;;;12.20;99.90;;;;;;4961800;28;20117;-91
2021/12/13 12:20:08;;;;;;;6.80;2.20;;;12.20;99.90;;;;;;4965765;28;20061;-92
2021/12/13 12:22:54;;;;;;;7.22;1.77;;;12.20;99.90;;;;;;4960661;28;20076;-88
2021/12/13 12:25:30;;;;;;;5.40;1.55;;;12.30;99.90;;;;;;4958216;28;20058;-87
2021/12/13 12:28:18;;;;;;;10.38;2.40;;;12.30;99.90;;;;;;4952236;28;20054;-89
2021/12/13 12:30:53;;;;;;;10.10;2.50;;;12.30;99.90;;;;;;4968012;28;20051;-87
2021/12/13 12:33:38;;;;;;;6.55;2.70;;;12.40;99.90;;;;;;4969054;28;20121;-88
2021/12/13 12:36:28;;;;;;;9.40;2.70;;;12.40;99.90;;;;;;4967451;28;20054;-90
2021/12/13 12:39:03;;;;;;;9.02;2.70;;;12.40;99.90;;;;;;4956852;28;20135;-87
2021/12/13 12:41:39;;;;;;;8.57;3.50;;;12.40;99.90;;;;;;4965580;28;20046;-88
2021/12/13 12:44:18;;;;;;;14.85;4.63;;;12.50;99.90;;;;;;4969971;28;20172;-87
2021/12/13 12:46:46;;;;;;;13.10;4.82;;;12.50;99.90;;;;;;4962375;28;20055;-90
2021/12/13 12:49:21;;;;;;;9.05;2.78;;;12.50;99.90;;;;;;4957483;28;20098;-89
2021/12/13 12:51:50;;;;;;;6.88;2.67;;;12.60;99.90;;;;;;4967057;28;20051;-89
2021/12/13 12:54:20;;;;;;;10.95;3.10;;;12.60;99.90;;;;;;4969265;28;20047;-89
2021/12/13 12:56:55;;;;;;;7.95;2.70;;;12.60;99.90;;;;;;4984875;28;20051;-90
2021/12/13 12:59:27;;;;;;;6.75;2.08;;;12.60;99.90;;;;;;4966957;28;20046;-88
2021/12/13 13:02:08;;;;;;;10.20;2.47;;;12.70;99.90;;;;;;4963338;28;20042;-88
2021/12/13 13:04:50;;;;;;;7.20;2.20;;;12.70;99.90;;;;;;4968715;28;20077;-87
2021/12/13 13:07:32;;;;;;;10.88;2.40;;;12.70;99.90;;;;;;4964793;28;20101;-89
2021/12/13 13:10:20;;;;;;;8.20;2.95;;;12.70;99.90;;;;;;4959125;28;20054;-89
2021/12/13 13:12:49;;;;;;;8.10;2.17;;;12.60;99.90;;;;;;4952844;28;20051;-89
2021/12/13 13:15:20;;;;;;;8.40;3.10;;;12.60;99.90;;;;;;4957504;28;20443;-88
2021/12/13 13:17:51;;;;;;;15.52;6.97;;;12.60;99.90;;;;;;4972655;28;20051;-88
2021/12/13 13:20:25;;;;;;;12.07;3.03;;;12.60;99.90;;;;;;4968821;28;20047;-89
2021/12/13 13:22:55;;;;;;;9.35;3.33;;;12.60;99.90;;;;;;4972655;28;20046;-88
2021/12/13 13:25:47;;;;;;;12.13;3.42;;;12.60;99.90;;;;;;4967759;28;20055;-89
2021/12/13 13:28:25;;;;;;;8.52;3.15;;;12.60;99.90;;;;;;4967962;28;20050;-88
2021/12/13 13:31:18;;;;;;;8.27;2.75;;;12.70;99.90;;;;;;4969926;28;20439;-87
2021/12/13 13:33:47;;;;;;;9.73;2.92;;;12.60;99.90;;;;;;4896897;29;20057;-88
2021/12/13 13:36:27;;;;;;;9.30;3.17;;;12.70;99.90;;;;;;4895609;29;20060;-88
2021/12/13 13:41:50;;;;;;;8.88;2.55;;;12.70;99.90;;;;;;4897303;29;19975;-88
2021/12/13 13:44:22;;;;;;;6.28;2.60;;;12.60;99.90;;;;;;4898638;29;20470;-88
2021/12/13 13:47:00;;;;;;;8.98;2.85;;;12.70;99.90;;;;;;4897671;29;20053;-89
2021/12/13 13:49:28;;;;;;;8.70;2.85;;;12.70;99.90;;;;;;4914948;29;20051;-88
2021/12/13 13:51:55;;;;;;;12.15;3.22;;;12.70;99.90;;;;;;4912922;29;20246;-88
2021/12/13 13:54:27;;;;;;;10.88;3.53;;;12.70;99.90;;;;;;4896020;29;20669;-88
2021/12/13 16:04:07;;;;;;;14.23;5.78;;;11.60;99.90;;;;;;5074076;27;20129;-86
2021/12/13 16:06:38;;;;;;;21.67;7.20;;;11.50;99.90;;;;;;5057618;28;20047;-88
2021/12/13 16:09:11;;;;;;;22.92;6.68;;;11.60;99.90;;;;;;5055746;28;20140;-87
2021/12/13 16:11:46;;;;;;;21.75;7.63;;;11.60;99.90;;;;;;5082254;28;20091;-89
2021/12/13 16:14:39;;;;;;;19.00;5.97;;;11.60;99.90;;;;;;5060364;28;20660;-87
2021/12/13 16:17:31;;;;;;;17.80;5.82;;;11.70;99.90;;;;;;5083720;28;20052;-87
2021/12/13 16:20:12;;;;;;;17.83;5.80;;;11.70;99.90;;;;;;5062373;28;20055;-88
2021/12/13 16:22:55;;;;;;;19.92;7.22;;;11.70;99.90;;;;;;5099558;28;20568;-88
2021/12/13 16:25:47;;;;;;;21.35;7.50;;;11.70;99.90;;;;;;5098844;28;20128;-87
2021/12/13 16:28:21;;;;;;;17.20;7.25;;;11.70;99.90;;;;;;5074692;28;20219;-88
2021/12/13 16:31:01;;;;;;;12.50;5.28;;;11.70;99.90;;;;;;5083411;28;20158;-88
2021/12/13 16:33:45;;;;;;;16.20;5.88;;;11.60;99.90;;;;;;5079991;28;20625;-89
2021/12/13 16:36:38;;;;;;;13.98;4.57;;;11.60;99.90;;;;;;5070420;28;20282;-89
2021/12/13 16:39:14;;;;;;;17.45;4.38;;;11.60;99.90;;;;;;5069698;28;20067;-87
2021/12/13 16:41:43;;;;;;;11.77;4.43;;;11.60;99.90;;;;;;5081808;28;20048;-89
2021/12/13 16:44:17;;;;;;;11.50;4.90;;;11.50;99.90;;;;;;5100193;28;20032;-89
2021/12/13 16:46:47;;;;;;;14.75;5.18;;;11.50;99.90;;;;;;5096965;28;20051;-88
2021/12/13 16:49:21;;;;;;;17.10;5.50;;;11.50;99.90;;;;;;5088103;28;20508;-86
2021/12/13 16:52:08;;;;;;;15.82;4.57;;;11.50;99.90;;;;;;5078698;28;20439;-89
2021/12/13 16:54:40;;;;;;;12.80;5.43;;;11.40;99.90;;;;;;5091574;28;20044;-88
2021/12/13 16:57:16;;;;;;;12.63;4.57;;;11.40;99.90;;;;;;5078488;28;20040;-87
2021/12/13 16:59:45;;;;;;;10.68;6.68;;;11.40;99.90;;;;;;5076037;28;20183;-88
2021/12/13 17:02:13;;;;;;;14.13;5.60;;;11.40;99.90;;;;;;5099420;28;20044;-87
2021/12/13 17:04:57;;;;;;;21.45;5.97;;;11.40;99.90;;;;;;5079771;28;20123;-89
2021/12/13 17:07:29;;;;;;;16.38;5.10;;;11.40;99.90;;;;;;5081665;28;20508;-90
2021/12/13 17:10:07;;;;;;;9.32;4.15;;;11.30;99.90;;;;;;5079147;28;20072;-89
2021/12/13 17:12:58;;;;;;;17.85;6.10;;;11.40;99.90;;;;;;5075838;28;20101;-87
2021/12/13 17:15:33;;;;;;;16.88;4.93;;;11.40;99.90;;;;;;5070408;28;20066;-88
2021/12/13 17:18:41;;;;;;;20.13;6.55;;;11.40;99.90;;;;;;5084672;28;20048;-89
2021/12/13 17:21:35;;;;;;;19.67;7.68;;;11.40;99.90;;;;;;4961918;28;20050;-89
2021/12/13 17:24:10;;;;;;;16.15;5.97;;;11.30;99.90;;;;;;4976004;28;20050;-87
2021/12/13 17:26:45;;;;;;;15.00;5.53;;;11.40;99.90;;;;;;4971214;28;20051;-87
2021/12/13 17:29:17;;;;;;;18.88;7.50;;;11.40;99.90;;;;;;4981728;28;20038;-87
2021/12/13 17:31:44;;;;;;;16.50;7.80;;;11.30;99.90;;;;;;4984035;28;20078;-88
2021/12/13 17:34:48;;;;;;;18.15;9.85;;;11.40;99.90;;;;;;4982234;28;20574;-88
2021/12/13 17:37:24;;;;;;;17.58;5.75;;;11.40;99.90;;;;;;4967500;28;20050;-88
2021/12/13 17:40:00;;;;;;;18.35;7.13;;;11.30;99.90;;;;;;4980634;28;20050;-88
2021/12/13 17:42:56;;;;;;;21.10;8.73;;;11.30;99.90;;;;;;4982020;28;20046;-87
2021/12/13 17:45:30;;;;;;;15.13;5.88;;;11.30;99.90;;;;;;4981522;28;21410;-87
2021/12/13 17:48:06;;;;;;;14.05;5.07;;;11.30;99.90;;;;;;4980769;28;20137;-87
2021/12/13 17:50:37;;;;;;;16.33;5.43;;;11.30;99.90;;;;;;4982691;28;20054;-87
2021/12/13 17:53:19;;;;;;;10.15;4.50;;;11.30;99.90;;;;;;4964687;28;20095;-86
2021/12/13 17:55:49;;;;;;;13.75;3.95;;;11.30;99.90;;;;;;5047746;28;20056;-87
2021/12/13 17:58:27;;;;;;;16.70;7.90;;;11.30;99.90;;;;;;5080095;28;20044;-87
2021/12/13 18:00:56;;;;;;;24.38;15.77;;;11.30;99.90;;;;;;5069534;28;20067;-89
2021/12/13 18:03:34;;;;;;;;;;;11.30;99.90;;;;;;5080815;28;20036;-89
2021/12/13 18:06:19;;;;;;;8.65;4.15;;;11.30;99.90;;;;;;5082497;28;19950;-88
2021/12/13 18:09:13;;;;;;;17.45;4.88;;;11.30;99.90;;;;;;5064131;28;20124;-88
2021/12/13 18:11:52;;;;;;;11.35;5.32;;;11.30;99.90;;;;;;5064523;28;20092;-88
2021/12/13 18:14:43;;;;;;;13.05;4.25;;;11.30;99.90;;;;;;5082703;28;20036;-88
2021/12/13 18:17:29;;;;;;;10.43;5.43;;;11.30;99.90;;;;;;5085416;28;20459;-88
2021/12/13 18:20:12;;;;;;;12.75;5.30;;;11.30;99.90;;;;;;5070782;28;20101;-88
2021/12/13 18:22:46;;;;;;;12.18;5.60;;;11.30;99.90;;;;;;5083040;28;20043;-88
2021/12/13 18:25:19;;;;;;;18.95;6.90;;;11.30;99.90;;;;;;5082713;28;20072;-88
2021/12/13 18:27:52;;;;;;;17.00;8.00;;;11.30;99.90;;;;;;5081611;28;20105;-87
2021/12/13 18:30:33;;;;;;;13.98;6.43;;;11.30;99.90;;;;;;5067832;28;20055;-87
2021/12/13 18:33:03;;;;;;;26.67;6.13;;;11.30;99.90;;;;;;5065904;28;20122;-87
2021/12/13 18:35:56;;;;;;;16.77;6.40;;;11.30;99.90;;;;;;5086129;28;20408;-86
2021/12/13 18:38:32;;;;;;;18.30;8.32;;;11.30;99.90;;;;;;5083145;28;20040;-91
2021/12/13 18:41:06;;;;;;;14.40;8.45;;;11.30;99.90;;;;;;5057935;28;20052;-89
2021/12/13 18:44:05;;;;;;;17.77;9.55;;;11.30;99.90;;;;;;5066989;28;20052;-85
2021/12/13 18:47:13;;;;;;;15.73;8.45;;;11.30;99.90;;;;;;5071551;28;20051;-85
2021/12/13 18:49:42;;;;;;;15.25;8.18;;;11.30;99.90;;;;;;5076747;28;20051;-85
2021/12/13 18:52:12;;;;;;;13.32;5.72;;;11.30;99.90;;;;;;5081498;28;20890;-85
2021/12/13 18:54:53;;;;;;;20.42;6.40;;;11.30;99.90;;;;;;5067381;28;20052;-85
2021/12/13 18:57:24;;;;;;;13.13;5.93;;;11.30;99.90;;;;;;5080836;28;20118;-86
2021/12/13 19:00:36;;;;;;;13.95;6.82;;;11.30;99.90;;;;;;5059737;28;20591;-85
2021/12/13 19:03:07;;;;;;;19.67;7.90;;;11.30;99.90;;;;;;5057969;28;20507;-86
2021/12/13 19:05:41;;;;;;;14.85;5.85;;;11.30;99.90;;;;;;5066345;28;20059;-84
2021/12/13 19:08:32;;;;;;;17.33;5.78;;;11.30;99.90;;;;;;5069894;28;20508;-85
2021/12/13 19:11:15;;;;;;;12.95;4.95;;;11.30;99.90;;;;;;5084130;28;20052;-85
2021/12/13 19:13:48;;;;;;;14.70;5.25;;;11.20;99.90;;;;;;5066869;28;20060;-84
2021/12/13 19:16:34;;;;;;;17.63;6.28;;;11.30;99.90;;;;;;5074244;28;20039;-84
2021/12/13 19:19:13;;;;;;;17.80;6.88;;;11.30;99.90;;;;;;5064611;28;20658;-84
2021/12/13 19:22:06;;;;;;;12.65;5.95;;;11.30;99.90;;;;;;5060807;28;20128;-84
2021/12/13 19:24:38;;;;;;;15.32;5.78;;;11.20;99.90;;;;;;5035495;28;20115;-86
2021/12/13 19:27:30;;;;;;;10.07;5.35;;;11.20;99.90;;;;;;5053173;28;20054;-86
2021/12/13 19:30:29;;;;;;;13.80;6.10;;;11.20;99.90;;;;;;5035514;28;20045;-86
2021/12/13 19:33:09;;;;;;;15.18;7.78;;;11.20;99.90;;;;;;5049565;28;20041;-87
2021/12/13 19:35:47;;;;;;;16.25;7.60;;;11.20;99.90;;;;;;5066684;28;20043;-87
2021/12/13 19:38:26;;;;;;;15.53;7.97;;;11.20;99.90;;;;;;5039895;28;20478;-86
2021/12/13 19:41:12;;;;;;;24.27;8.48;;;11.20;99.90;;;;;;5070739;28;20467;-87
2021/12/13 19:43:55;;;;;;;14.95;8.25;;;11.10;99.90;;;;;;5072060;28;20048;-87
2021/12/13 19:46:34;;;;;;;18.73;8.55;;;11.20;99.90;;;;;;5077397;28;20065;-87
2021/12/13 19:49:12;;;;;;;24.90;10.60;;;11.10;99.90;;;;;;5054451;28;20374;-88
2021/12/13 19:51:53;;;;;;;21.35;11.65;;;11.10;99.90;;;;;;5053369;28;20106;-87
2021/12/13 19:54:31;;;;;;;21.80;10.88;;;11.10;99.90;;;;;;5061833;28;20068;-85
2021/12/13 19:57:07;;;;;;;21.98;8.80;;;11.10;99.90;;;;;;5071345;28;20072;-87
2021/12/13 20:00:11;;;;;;;18.23;8.60;;;11.10;99.90;;;;;;5058851;28;20179;-85
2021/12/13 20:02:44;;;;;;;19.88;10.18;;;11.10;99.90;;;;;;5056218;28;20098;-87
2021/12/13 20:05:23;;;;;;;23.75;10.68;;;11.10;99.90;;;;;;5052014;28;20076;-86
2021/12/13 20:08:03;;;;;;;20.50;11.00;;;11.10;99.90;;;;;;5041794;28;20103;-85
2021/12/13 20:11:02;;;;;;;22.10;10.00;;;11.10;99.90;;;;;;5060573;28;20086;-88
2021/12/13 20:13:43;;;;;;;18.00;9.45;;;11.10;99.90;;;;;;5059802;28;20122;-88
2021/12/13 20:16:15;;;;;;;13.57;7.85;;;11.10;99.90;;;;;;5057982;28;20045;-86
2021/12/13 20:18:55;;;;;;;19.88;8.40;;;11.10;99.90;;;;;;5056157;28;20043;-86
2021/12/13 20:21:36;;;;;;;16.77;9.52;;;11.10;99.90;;;;;;5065149;28;20044;-87
2021/12/13 20:24:06;;;;;;;15.95;8.80;;;11.10;99.90;;;;;;5066843;28;20052;-89
2021/12/13 20:26:40;;;;;;;19.20;9.23;;;11.10;99.90;;;;;;5063952;28;20048;-87
2021/12/13 20:29:10;;;;;;;22.20;7.55;;;11.10;99.90;;;;;;5062134;28;20054;-87
2021/12/13 20:31:41;;;;;;;20.02;8.10;;;11.00;99.90;;;;;;5046143;28;20041;-88
2021/12/13 20:34:12;;;;;;;19.10;8.27;;;11.10;99.90;;;;;;5061087;28;20064;-85
2021/12/13 20:36:54;;;;;;;16.08;8.15;;;11.00;99.90;;;;;;5039785;28;20461;-85
2021/12/13 20:39:44;;;;;;;24.15;8.25;;;11.10;99.90;;;;;;5056592;28;20045;-86
2021/12/13 20:42:40;;;;;;;20.02;9.18;;;11.00;99.90;;;;;;5042003;28;20049;-85
2021/12/13 20:45:30;;;;;;;17.63;8.90;;;11.00;99.90;;;;;;5044638;28;20095;-85
2021/12/13 20:48:05;;;;;;;16.77;7.72;;;11.00;99.90;;;;;;5059963;28;20129;-85
2021/12/13 20:50:40;;;;;;;18.95;9.10;;;11.00;99.90;;;;;;5058265;28;20541;-84
2021/12/13 20:53:12;;;;;;;17.42;8.38;;;11.00;99.90;;;;;;5059983;28;20045;-83
2021/12/13 20:55:47;;;;;;;16.00;7.97;;;11.00;99.90;;;;;;5058986;28;20475;-85
2021/12/13 20:58:23;;;;;;;14.57;9.00;;;11.00;99.90;;;;;;5058040;28;20102;-84
2021/12/13 21:00:57;;;;;;;17.95;9.63;;;11.00;99.90;;;;;;5058834;28;20053;-86
2021/12/13 21:03:38;;;;;;;16.30;8.93;;;11.00;99.90;;;;;;5061667;28;20301;-87
2021/12/13 21:06:14;;;;;;;22.63;9.25;;;11.00;99.90;;;;;;5046512;28;20049;-86
2021/12/13 21:08:46;;;;;;;15.05;7.93;;;11.00;99.90;;;;;;5054388;28;20047;-85
2021/12/13 21:11:20;;;;;;;19.38;9.02;;;10.90;99.90;;;;;;5052065;28;20044;-85
2021/12/13 21:13:54;;;;;;;21.85;9.48;;;11.00;99.90;;;;;;5053670;28;20422;-86
2021/12/13 21:16:27;;;;;;;14.93;9.00;;;10.90;99.90;;;;;;5060287;28;20044;-86
2021/12/13 21:19:04;;;;;;;18.00;9.90;;;10.90;99.90;;;;;;5060933;28;20080;-86
2021/12/13 21:21:36;;;;;;;19.88;10.02;;;10.90;99.90;;;;;;5047555;28;20115;-85
2021/12/13 21:24:18;;;;;;;17.67;8.90;;;10.90;99.90;;;;;;5043681;28;20060;-86
2021/12/13 21:26:53;;;;;;;20.85;8.52;;;10.90;99.90;;;;;;5041022;28;20048;-87
2021/12/13 21:29:24;;;;;;;15.32;9.00;;;10.90;99.90;;;;;;5064952;28;20052;-84
2021/12/13 21:32:05;;;;;;;19.13;9.02;;;10.90;99.90;;;;;;5058208;28;20111;-86
2021/12/13 21:34:47;;;;;;;20.98;9.95;;;10.90;99.90;;;;;;5062114;28;20115;-86
2021/12/13 21:40:35;;;;;;;15.98;8.93;;;10.80;99.90;;;;;;5058135;28;20100;-86
2021/12/13 21:43:04;;;;;;;16.30;9.77;;;10.80;99.90;;;;;;5046879;28;20040;-86
2021/12/13 21:45:43;;;;;;;19.67;9.60;;;10.80;99.90;;;;;;5063531;28;20065;-86
2021/12/13 21:48:15;;;;;;;;;;;10.80;99.90;;;;;;5050331;28;20069;-87
2021/12/13 21:50:59;;;;;;;24.00;10.75;;;10.80;99.90;;;;;;5056631;28;20384;-88
2021/12/13 21:53:38;;;;;;;18.58;11.32;;;10.80;99.90;;;;;;5068996;28;20044;-87
2021/12/13 21:56:22;;;;;;;16.02;11.27;;;10.80;99.90;;;;;;5074728;28;20044;-86
2021/12/13 21:58:51;;;;;;;25.80;12.13;;;10.80;99.90;;;;;;5070869;28;20798;-87
2021/12/13 22:01:36;;;;;;;16.33;11.02;;;10.80;99.90;;;;;;5071752;28;20053;-86
2021/12/13 22:04:08;;;;;;;17.90;10.00;;;10.80;99.90;;;;;;5071199;28;20076;-86
2021/12/13 22:06:42;;;;;;;26.52;12.70;;;10.70;99.90;;;;;;5077948;28;20055;-87
2021/12/13 22:09:15;;;;;;;21.42;11.60;;;10.70;99.90;;;;;;5073866;28;20063;-88
2021/12/13 22:11:50;;;;;;;66.30;12.15;;;10.70;99.90;;;;;;5058379;28;20059;-87
2021/12/13 22:14:25;;;;;;;37.95;11.60;;;10.70;99.90;;;;;;5055951;28;20044;-88
2021/12/13 22:17:04;;;;;;;44.30;18.55;;;10.70;99.90;;;;;;5063492;28;20044;-88
2021/12/13 22:19:34;;;;;;;;;;;10.70;99.90;;;;;;5072415;28;20122;-88
2021/12/13 22:22:07;;;;;;;52.00;14.40;;;10.70;99.90;;;;;;5074785;28;20347;-88
2021/12/13 22:24:42;;;;;;;31.35;10.98;;;10.60;99.90;;;;;;5080941;28;20044;-88
2021/12/13 22:27:19;;;;;;;42.20;12.43;;;10.60;99.90;;;;;;5071248;28;20463;-88
2021/12/13 22:29:46;;;;;;;38.53;11.80;;;10.70;99.90;;;;;;5073658;28;20106;-86
2021/12/13 22:32:16;;;;;;;28.50;13.23;;;10.60;99.90;;;;;;5053588;28;20106;-87
2021/12/13 22:34:59;;;;;;;80.53;18.90;;;10.60;99.90;;;;;;5033962;28;20090;-86
2021/12/13 22:37:30;;;;;;;45.03;17.55;;;10.60;99.90;;;;;;5068953;28;20040;-87
2021/12/13 22:40:04;;;;;;;69.47;15.40;;;10.60;99.90;;;;;;5057830;28;20080;-87
2021/12/13 22:42:32;;;;;;;25.08;12.00;;;10.60;99.90;;;;;;5041130;28;20048;-84
2021/12/13 22:45:00;;;;;;;29.45;12.25;;;10.60;99.90;;;;;;5039940;28;20508;-87
2021/12/13 22:47:30;;;;;;;25.52;11.73;;;10.60;99.90;;;;;;5052578;28;20053;-86
2021/12/13 22:50:13;;;;;;;144.80;14.45;;;10.60;99.90;;;;;;5054201;28;20045;-87
2021/12/13 22:52:43;;;;;;;43.17;12.23;;;10.60;99.90;;;;;;5070422;28;20094;-87